Sabine Pass, TX

6:23 AM CST on January 29, 2015 (GMT -0600)
MARITIME | Change Station
CLOSE
Current Station
Personal Weather Station
Location: Sabine Pass, TX
Elevation: 3 ft
Nearby Weather Stations
Active Advisory: Dense Fog Advisory

Elev 3 ft 29.67 °N, 94.05 °W | Updated 23 minutes ago

Fog
Fog
58 °F
Feels Like 58 °F
N
3
Wind Variable Wind from SSW
Gusts 5.0 mph

Today
High -- | Low -- °F
--% Chance of Precip.
Yesterday
High -- | Low -- °F
Precip. -- in
7:07 AM 5:50 PM
Waxing Gibbous, 74% visible
Pressure 30.18 in
Visibility 0.2 miles
Clouds
Dew Point 56 °F
Humidity 96%
Rainfall -999.00 in
Snow Depth Not available.
UV Not available.
Pollen 7.30 out of 12
Air Quality Not available.
Flu Activity Not available.
METAR KBPT 291153Z AUTO 31003KT 1/4SM R12/1000V1600FT FG VV002 11/11 A3018

More Conditions Fewer Conditions

Pressure 30.18 in
Visibility 0.2 miles
Clouds
Dew Point 56 °F
Humidity 96%
Rainfall -999.00 in
Snow Depth Not available.
UV Not available.
Pollen 7.30 out of 12
Air Quality Not available.
Flu Activity Not available.
METAR KBPT 291153Z AUTO 31003KT 1/4SM R12/1000V1600FT FG VV002 11/11 A3018

More Conditions Fewer Conditions

10-Day Weather Forecast

Almanac

Astronomy

Jan. 29, 2015 Rise Set
Actual Time
Civil Twilight
Nautical Twilight
Astronomical Twilight
Moon
Length of Visible Light
Length of Day
Tomorrow will be .
, % of the Moon is Illuminated

Today's Extremes

State Highs State Lows

Community

WunderPhotos

Upload Photos

1,791,420 photos uploaded!

WunderBlogs® & News

Nearby

Air Quality

  Air Quality AQ Index Pollutant
Not available.

Snow Depth

Station Depth Elevation

Earthquake Activity

City Distance Mag. Time & Date
Minimum magnitude displayed is 2.5.

Coastal Water Temperatures

Place Temperature

Nearby Weather Stations